sensor_id;sensor_type;location;lat;lon;timestamp;temperature;humidity
1578;DHT22;57623;53.608;10.004;2022-09-20T00:00:49;9.40;99.90
1578;DHT22;57623;53.608;10.004;2022-09-20T00:03:54;9.50;99.90
1578;DHT22;57623;53.608;10.004;2022-09-20T00:08:11;9.40;99.90
1578;DHT22;57623;53.608;10.004;2022-09-20T00:10:59;9.40;99.90
1578;DHT22;57623;53.608;10.004;2022-09-20T00:13:59;9.40;99.90
1578;DHT22;57623;53.608;10.004;2022-09-20T00:17:20;9.30;99.90
1578;DHT22;57623;53.608;10.004;2022-09-20T00:20:42;9.30;99.90
1578;DHT22;57623;53.608;10.004;2022-09-20T00:23:52;9.30;99.90
1578;DHT22;57623;53.608;10.004;2022-09-20T00:26:58;9.30;99.90
1578;DHT22;57623;53.608;10.004;2022-09-20T00:30:11;9.20;99.90
1578;DHT22;57623;53.608;10.004;2022-09-20T00:33:23;9.20;99.90
1578;DHT22;57623;53.608;10.004;2022-09-20T00:36:39;9.20;99.90
1578;DHT22;57623;53.608;10.004;2022-09-20T00:39:32;9.20;99.90
1578;DHT22;57623;53.608;10.004;2022-09-20T00:42:49;9.20;99.90
1578;DHT22;57623;53.608;10.004;2022-09-20T00:45:58;9.10;99.90
1578;DHT22;57623;53.608;10.004;2022-09-20T00:48:54;9.10;99.90
1578;DHT22;57623;53.608;10.004;2022-09-20T00:52:01;9.10;99.90
1578;DHT22;57623;53.608;10.004;2022-09-20T00:55:08;9.10;99.90
1578;DHT22;57623;53.608;10.004;2022-09-20T00:58:00;9.10;99.90
1578;DHT22;57623;53.608;10.004;2022-09-20T01:01:38;9.10;99.90
1578;DHT22;57623;53.608;10.004;2022-09-20T01:04:43;9.10;99.90
1578;DHT22;57623;53.608;10.004;2022-09-20T01:07:48;9.10;99.90
1578;DHT22;57623;53.608;10.004;2022-09-20T01:11:01;9.00;99.90
1578;DHT22;57623;53.608;10.004;2022-09-20T01:14:30;9.00;99.90
1578;DHT22;57623;53.608;10.004;2022-09-20T01:17:24;9.00;99.90
1578;DHT22;57623;53.608;10.004;2022-09-20T01:20:39;9.00;99.90
1578;DHT22;57623;53.608;10.004;2022-09-20T01:23:59;9.00;99.90
1578;DHT22;57623;53.608;10.004;2022-09-20T01:27:10;9.00;99.90
1578;DHT22;57623;53.608;10.004;2022-09-20T01:30:15;8.90;99.90
1578;DHT22;57623;53.608;10.004;2022-09-20T01:33:44;8.90;99.90
1578;DHT22;57623;53.608;10.004;2022-09-20T01:36:58;8.80;99.90
1578;DHT22;57623;53.608;10.004;2022-09-20T01:40:23;8.80;99.90
1578;DHT22;57623;53.608;10.004;2022-09-20T01:43:52;8.80;99.90
1578;DHT22;57623;53.608;10.004;2022-09-20T01:47:02;8.80;99.90
1578;DHT22;57623;53.608;10.004;2022-09-20T01:50:19;8.70;99.90
1578;DHT22;57623;53.608;10.004;2022-09-20T01:53:44;8.80;99.90
1578;DHT22;57623;53.608;10.004;2022-09-20T01:57:09;8.80;99.90
1578;DHT22;57623;53.608;10.004;2022-09-20T02:00:24;8.70;99.90
1578;DHT22;57623;53.608;10.004;2022-09-20T02:03:55;8.70;99.90
1578;DHT22;57623;53.608;10.004;2022-09-20T02:07:33;8.70;99.90
1578;DHT22;57623;53.608;10.004;2022-09-20T02:14:44;8.70;99.90
1578;DHT22;57623;53.608;10.004;2022-09-20T02:18:02;8.70;99.90
1578;DHT22;57623;53.608;10.004;2022-09-20T02:21:25;8.70;99.90
1578;DHT22;57623;53.608;10.004;2022-09-20T02:24:38;8.60;99.90
1578;DHT22;57623;53.608;10.004;2022-09-20T02:27:44;8.60;99.90
1578;DHT22;57623;53.608;10.004;2022-09-20T02:30:50;8.60;99.90
1578;DHT22;57623;53.608;10.004;2022-09-20T02:34:19;8.60;99.90
1578;DHT22;57623;53.608;10.004;2022-09-20T02:37:54;8.50;99.90
1578;DHT22;57623;53.608;10.004;2022-09-20T02:44:27;8.50;99.90
1578;DHT22;57623;53.608;10.004;2022-09-20T02:47:50;8.50;99.90
1578;DHT22;57623;53.608;10.004;2022-09-20T02:50:53;8.50;99.90
1578;DHT22;57623;53.608;10.004;2022-09-20T02:54:13;8.50;99.90
1578;DHT22;57623;53.608;10.004;2022-09-20T02:57:25;8.50;99.90
1578;DHT22;57623;53.608;10.004;2022-09-20T03:00:26;8.50;99.90
1578;DHT22;57623;53.608;10.004;2022-09-20T03:03:42;8.50;99.90
1578;DHT22;57623;53.608;10.004;2022-09-20T03:07:04;8.40;99.90
1578;DHT22;57623;53.608;10.004;2022-09-20T03:14:11;8.40;99.90
1578;DHT22;57623;53.608;10.004;2022-09-20T03:17:33;8.40;99.90
1578;DHT22;57623;53.608;10.004;2022-09-20T03:20:38;8.40;99.90
1578;DHT22;57623;53.608;10.004;2022-09-20T03:24:02;8.40;99.90
1578;DHT22;57623;53.608;10.004;2022-09-20T03:27:24;8.40;99.90
1578;DHT22;57623;53.608;10.004;2022-09-20T03:30:51;8.40;99.90
1578;DHT22;57623;53.608;10.004;2022-09-20T03:34:10;8.40;99.90
1578;DHT22;57623;53.608;10.004;2022-09-20T03:37:22;8.30;99.90
1578;DHT22;57623;53.608;10.004;2022-09-20T03:41:13;8.40;99.90
1578;DHT22;57623;53.608;10.004;2022-09-20T03:44:30;8.40;99.90
1578;DHT22;57623;53.608;10.004;2022-09-20T03:47:46;8.30;99.90
1578;DHT22;57623;53.608;10.004;2022-09-20T03:51:05;8.40;99.90
1578;DHT22;57623;53.608;10.004;2022-09-20T03:54:54;8.40;99.90
1578;DHT22;57623;53.608;10.004;2022-09-20T03:58:11;8.40;99.90
1578;DHT22;57623;53.608;10.004;2022-09-20T04:04:58;8.20;99.90
1578;DHT22;57623;53.608;10.004;2022-09-20T04:08:11;8.30;99.90
1578;DHT22;57623;53.608;10.004;2022-09-20T04:11:39;8.20;99.90
1578;DHT22;57623;53.608;10.004;2022-09-20T04:14:46;8.20;99.90
1578;DHT22;57623;53.608;10.004;2022-09-20T04:17:51;8.20;99.90
1578;DHT22;57623;53.608;10.004;2022-09-20T04:21:03;8.20;99.90
1578;DHT22;57623;53.608;10.004;2022-09-20T04:24:17;8.20;99.90
1578;DHT22;57623;53.608;10.004;2022-09-20T04:27:28;8.20;99.90
1578;DHT22;57623;53.608;10.004;2022-09-20T04:30:20;8.20;99.90
1578;DHT22;57623;53.608;10.004;2022-09-20T04:33:38;8.10;99.90
1578;DHT22;57623;53.608;10.004;2022-09-20T04:37:21;8.10;99.90
1578;DHT22;57623;53.608;10.004;2022-09-20T04:41:16;8.00;99.90
1578;DHT22;57623;53.608;10.004;2022-09-20T04:48:43;8.00;99.90
1578;DHT22;57623;53.608;10.004;2022-09-20T04:52:18;8.00;99.90
1578;DHT22;57623;53.608;10.004;2022-09-20T04:59:06;8.00;99.90
1578;DHT22;57623;53.608;10.004;2022-09-20T05:02:24;7.90;99.90
1578;DHT22;57623;53.608;10.004;2022-09-20T05:09:19;7.90;99.90
1578;DHT22;57623;53.608;10.004;2022-09-20T05:12:43;7.90;99.90
1578;DHT22;57623;53.608;10.004;2022-09-20T05:16:08;7.90;99.90
1578;DHT22;57623;53.608;10.004;2022-09-20T05:19:58;7.90;99.90
1578;DHT22;57623;53.608;10.004;2022-09-20T05:26:46;7.90;99.90
1578;DHT22;57623;53.608;10.004;2022-09-20T05:29:47;7.90;99.90
1578;DHT22;57623;53.608;10.004;2022-09-20T05:32:45;7.80;99.90
1578;DHT22;57623;53.608;10.004;2022-09-20T05:35:44;7.80;99.90
1578;DHT22;57623;53.608;10.004;2022-09-20T05:38:46;7.80;99.90
1578;DHT22;57623;53.608;10.004;2022-09-20T05:41:44;7.80;99.90
1578;DHT22;57623;53.608;10.004;2022-09-20T05:44:55;7.80;99.90
1578;DHT22;57623;53.608;10.004;2022-09-20T05:47:51;7.80;99.90
1578;DHT22;57623;53.608;10.004;2022-09-20T05:50:45;7.80;99.90
1578;DHT22;57623;53.608;10.004;2022-09-20T05:54:24;7.80;99.90
1578;DHT22;57623;53.608;10.004;2022-09-20T05:57:24;7.90;99.90
1578;DHT22;57623;53.608;10.004;2022-09-20T06:00:18;7.90;99.90
1578;DHT22;57623;53.608;10.004;2022-09-20T06:03:13;7.90;99.90
1578;DHT22;57623;53.608;10.004;2022-09-20T06:06:11;8.00;99.90
1578;DHT22;57623;53.608;10.004;2022-09-20T06:09:18;8.00;99.90
1578;DHT22;57623;53.608;10.004;2022-09-20T06:12:29;8.10;99.90
1578;DHT22;57623;53.608;10.004;2022-09-20T06:15:25;8.10;99.90
1578;DHT22;57623;53.608;10.004;2022-09-20T06:18:23;8.10;99.90
1578;DHT22;57623;53.608;10.004;2022-09-20T06:21:22;8.20;99.90
1578;DHT22;57623;53.608;10.004;2022-09-20T06:24:22;8.20;99.90
1578;DHT22;57623;53.608;10.004;2022-09-20T06:27:14;8.20;99.90
1578;DHT22;57623;53.608;10.004;2022-09-20T06:30:13;8.30;99.90
1578;DHT22;57623;53.608;10.004;2022-09-20T06:33:13;8.40;99.90
1578;DHT22;57623;53.608;10.004;2022-09-20T06:36:06;8.60;99.90
1578;DHT22;57623;53.608;10.004;2022-09-20T06:39:15;8.80;99.90
1578;DHT22;57623;53.608;10.004;2022-09-20T06:42:26;8.80;99.90
1578;DHT22;57623;53.608;10.004;2022-09-20T06:45:16;8.80;99.90
1578;DHT22;57623;53.608;10.004;2022-09-20T06:48:04;8.80;99.90
1578;DHT22;57623;53.608;10.004;2022-09-20T06:50:55;8.80;99.90
1578;DHT22;57623;53.608;10.004;2022-09-20T06:53:43;8.80;99.90
1578;DHT22;57623;53.608;10.004;2022-09-20T06:56:32;8.90;99.90
1578;DHT22;57623;53.608;10.004;2022-09-20T06:59:22;8.90;99.90
1578;DHT22;57623;53.608;10.004;2022-09-20T07:02:14;9.00;99.90
1578;DHT22;57623;53.608;10.004;2022-09-20T07:05:02;9.10;99.90
1578;DHT22;57623;53.608;10.004;2022-09-20T07:07:56;9.10;99.90
1578;DHT22;57623;53.608;10.004;2022-09-20T07:10:44;9.20;99.90
1578;DHT22;57623;53.608;10.004;2022-09-20T07:13:33;9.20;99.90
1578;DHT22;57623;53.608;10.004;2022-09-20T07:16:21;9.30;99.90
1578;DHT22;57623;53.608;10.004;2022-09-20T07:19:11;9.40;99.90
1578;DHT22;57623;53.608;10.004;2022-09-20T07:21:59;9.50;99.90
1578;DHT22;57623;53.608;10.004;2022-09-20T07:24:47;9.50;99.90
1578;DHT22;57623;53.608;10.004;2022-09-20T07:27:36;9.60;99.90
1578;DHT22;57623;53.608;10.004;2022-09-20T07:30:25;9.70;99.90
1578;DHT22;57623;53.608;10.004;2022-09-20T07:33:14;9.80;99.90
1578;DHT22;57623;53.608;10.004;2022-09-20T07:36:08;9.90;99.90
1578;DHT22;57623;53.608;10.004;2022-09-20T07:38:57;9.90;99.90
1578;DHT22;57623;53.608;10.004;2022-09-20T07:41:45;10.00;99.90
1578;DHT22;57623;53.608;10.004;2022-09-20T07:44:34;10.10;99.90
1578;DHT22;57623;53.608;10.004;2022-09-20T07:47:24;10.10;99.90
1578;DHT22;57623;53.608;10.004;2022-09-20T07:50:12;10.20;99.90
1578;DHT22;57623;53.608;10.004;2022-09-20T07:53:02;10.30;99.90
1578;DHT22;57623;53.608;10.004;2022-09-20T07:55:58;10.40;99.90
1578;DHT22;57623;53.608;10.004;2022-09-20T07:58:46;10.40;99.90
1578;DHT22;57623;53.608;10.004;2022-09-20T08:01:38;10.50;99.90
1578;DHT22;57623;53.608;10.004;2022-09-20T08:04:27;10.60;99.90
1578;DHT22;57623;53.608;10.004;2022-09-20T08:07:15;10.60;99.90
1578;DHT22;57623;53.608;10.004;2022-09-20T08:10:06;10.70;99.90
1578;DHT22;57623;53.608;10.004;2022-09-20T08:12:54;10.80;99.90
1578;DHT22;57623;53.608;10.004;2022-09-20T08:16:04;10.80;99.90
1578;DHT22;57623;53.608;10.004;2022-09-20T08:18:54;10.90;99.90
1578;DHT22;57623;53.608;10.004;2022-09-20T08:21:43;10.90;99.90
1578;DHT22;57623;53.608;10.004;2022-09-20T08:24:32;11.10;99.90
1578;DHT22;57623;53.608;10.004;2022-09-20T08:27:21;11.10;99.90
1578;DHT22;57623;53.608;10.004;2022-09-20T08:30:10;11.20;99.90
1578;DHT22;57623;53.608;10.004;2022-09-20T08:32:58;11.20;99.90
1578;DHT22;57623;53.608;10.004;2022-09-20T08:35:47;11.30;99.90
1578;DHT22;57623;53.608;10.004;2022-09-20T08:38:36;11.30;99.90
1578;DHT22;57623;53.608;10.004;2022-09-20T08:41:46;11.40;99.90
1578;DHT22;57623;53.608;10.004;2022-09-20T08:44:42;11.40;99.90
1578;DHT22;57623;53.608;10.004;2022-09-20T08:47:36;11.50;99.90
1578;DHT22;57623;53.608;10.004;2022-09-20T08:50:27;11.50;99.90
1578;DHT22;57623;53.608;10.004;2022-09-20T08:53:15;11.60;99.90
1578;DHT22;57623;53.608;10.004;2022-09-20T08:56:07;11.70;99.90
1578;DHT22;57623;53.608;10.004;2022-09-20T08:58:57;11.80;99.90
1578;DHT22;57623;53.608;10.004;2022-09-20T09:01:49;11.80;99.90
1578;DHT22;57623;53.608;10.004;2022-09-20T09:04:38;11.90;99.90
1578;DHT22;57623;53.608;10.004;2022-09-20T09:07:26;11.90;99.90
1578;DHT22;57623;53.608;10.004;2022-09-20T09:10:15;12.00;99.90
1578;DHT22;57623;53.608;10.004;2022-09-20T09:36:20;12.00;99.90
1578;DHT22;57623;53.608;10.004;2022-09-20T09:39:14;12.90;99.90
1578;DHT22;57623;53.608;10.004;2022-09-20T09:42:20;12.90;99.90
1578;DHT22;57623;53.608;10.004;2022-09-20T09:45:11;13.10;99.90
1578;DHT22;57623;53.608;10.004;2022-09-20T09:48:00;13.10;99.90
1578;DHT22;57623;53.608;10.004;2022-09-20T09:50:49;13.20;99.90
1578;DHT22;57623;53.608;10.004;2022-09-20T09:53:39;13.30;99.90
1578;DHT22;57623;53.608;10.004;2022-09-20T10:08:57;13.40;99.90
1578;DHT22;57623;53.608;10.004;2022-09-20T10:12:09;13.70;99.90
1578;DHT22;57623;53.608;10.004;2022-09-20T10:15:13;13.80;99.90
1578;DHT22;57623;53.608;10.004;2022-09-20T10:22:18;14.10;99.90
1578;DHT22;57623;53.608;10.004;2022-09-20T10:25:22;14.20;99.90
1578;DHT22;57623;53.608;10.004;2022-09-20T10:28:28;14.20;99.90
1578;DHT22;57623;53.608;10.004;2022-09-20T10:31:32;14.20;99.90
1578;DHT22;57623;53.608;10.004;2022-09-20T10:34:46;14.30;99.90
1578;DHT22;57623;53.608;10.004;2022-09-20T10:37:45;14.30;99.90
1578;DHT22;57623;53.608;10.004;2022-09-20T10:40:43;14.40;99.90
1578;DHT22;57623;53.608;10.004;2022-09-20T10:44:14;14.40;99.90
1578;DHT22;57623;53.608;10.004;2022-09-20T10:47:13;14.40;99.90
1578;DHT22;57623;53.608;10.004;2022-09-20T10:50:17;14.50;99.90
1578;DHT22;57623;53.608;10.004;2022-09-20T10:53:21;14.60;99.90
1578;DHT22;57623;53.608;10.004;2022-09-20T10:56:25;14.80;99.90
1578;DHT22;57623;53.608;10.004;2022-09-20T10:59:34;14.90;99.90
1578;DHT22;57623;53.608;10.004;2022-09-20T11:02:39;15.00;99.90
1578;DHT22;57623;53.608;10.004;2022-09-20T11:05:45;15.10;99.90
1578;DHT22;57623;53.608;10.004;2022-09-20T11:08:37;15.20;99.90
1578;DHT22;57623;53.608;10.004;2022-09-20T11:11:30;15.30;99.90
1578;DHT22;57623;53.608;10.004;2022-09-20T11:14:26;15.40;99.90
1578;DHT22;57623;53.608;10.004;2022-09-20T11:52:46;17.00;99.90
1578;DHT22;57623;53.608;10.004;2022-09-20T11:55:46;17.10;99.90
1578;DHT22;57623;53.608;10.004;2022-09-20T11:58:46;17.30;99.90
1578;DHT22;57623;53.608;10.004;2022-09-20T12:01:36;17.50;99.90
1578;DHT22;57623;53.608;10.004;2022-09-20T12:04:27;17.70;99.90
1578;DHT22;57623;53.608;10.004;2022-09-20T12:07:24;17.90;99.90
1578;DHT22;57623;53.608;10.004;2022-09-20T12:10:21;18.00;99.90
1578;DHT22;57623;53.608;10.004;2022-09-20T12:13:21;18.10;99.90
1578;DHT22;57623;53.608;10.004;2022-09-20T12:16:14;18.30;99.90
1578;DHT22;57623;53.608;10.004;2022-09-20T12:19:03;18.50;99.90
1578;DHT22;57623;53.608;10.004;2022-09-20T12:22:15;18.70;99.90
1578;DHT22;57623;53.608;10.004;2022-09-20T12:25:33;18.80;99.90
1578;DHT22;57623;53.608;10.004;2022-09-20T12:28:32;19.00;99.90
1578;DHT22;57623;53.608;10.004;2022-09-20T12:31:46;19.20;99.90
1578;DHT22;57623;53.608;10.004;2022-09-20T12:34:35;19.20;99.90
1578;DHT22;57623;53.608;10.004;2022-09-20T12:37:25;19.20;99.90
1578;DHT22;57623;53.608;10.004;2022-09-20T12:40:14;19.50;99.90
1578;DHT22;57623;53.608;10.004;2022-09-20T12:43:15;20.00;99.90
1578;DHT22;57623;53.608;10.004;2022-09-20T12:46:04;20.70;99.90
1578;DHT22;57623;53.608;10.004;2022-09-20T12:49:41;21.10;99.90
1578;DHT22;57623;53.608;10.004;2022-09-20T12:52:51;21.60;99.90
1578;DHT22;57623;53.608;10.004;2022-09-20T12:55:52;22.30;99.90
1578;DHT22;57623;53.608;10.004;2022-09-20T12:58:50;23.00;99.90
1578;DHT22;57623;53.608;10.004;2022-09-20T13:10:33;23.60;99.90
1578;DHT22;57623;53.608;10.004;2022-09-20T13:13:34;26.90;99.90
1578;DHT22;57623;53.608;10.004;2022-09-20T13:16:32;26.60;97.00
1578;DHT22;57623;53.608;10.004;2022-09-20T13:19:24;26.30;96.70
1578;DHT22;57623;53.608;10.004;2022-09-20T13:22:20;26.10;98.90
1578;DHT22;57623;53.608;10.004;2022-09-20T13:25:13;26.10;96.20
1578;DHT22;57623;53.608;10.004;2022-09-20T13:28:07;26.40;96.20
1578;DHT22;57623;53.608;10.004;2022-09-20T13:31:29;26.40;92.70
1578;DHT22;57623;53.608;10.004;2022-09-20T13:34:20;26.60;93.20
1578;DHT22;57623;53.608;10.004;2022-09-20T13:37:16;26.60;92.70
1578;DHT22;57623;53.608;10.004;2022-09-20T13:40:19;26.40;93.00
1578;DHT22;57623;53.608;10.004;2022-09-20T13:43:19;26.20;90.20
1578;DHT22;57623;53.608;10.004;2022-09-20T13:46:13;26.20;92.30
1578;DHT22;57623;53.608;10.004;2022-09-20T13:49:16;26.40;90.50
1578;DHT22;57623;53.608;10.004;2022-09-20T13:52:21;26.30;93.20
1578;DHT22;57623;53.608;10.004;2022-09-20T13:55:29;26.10;90.40
1578;DHT22;57623;53.608;10.004;2022-09-20T13:58:20;25.20;90.40
1578;DHT22;57623;53.608;10.004;2022-09-20T14:01:21;24.60;92.40
1578;DHT22;57623;53.608;10.004;2022-09-20T14:04:15;23.80;93.20
1578;DHT22;57623;53.608;10.004;2022-09-20T14:07:05;23.00;92.60
1578;DHT22;57623;53.608;10.004;2022-09-20T15:27:36;22.30;95.80
1578;DHT22;57623;53.608;10.004;2022-09-20T15:30:27;18.60;99.90
1578;DHT22;57623;53.608;10.004;2022-09-20T15:33:17;18.40;99.90
1578;DHT22;57623;53.608;10.004;2022-09-20T15:36:06;18.20;99.90
1578;DHT22;57623;53.608;10.004;2022-09-20T15:38:54;18.10;99.90
1578;DHT22;57623;53.608;10.004;2022-09-20T15:41:43;18.10;99.90
1578;DHT22;57623;53.608;10.004;2022-09-20T15:44:31;18.00;99.90
1578;DHT22;57623;53.608;10.004;2022-09-20T15:47:21;17.90;99.90
1578;DHT22;57623;53.608;10.004;2022-09-20T15:50:10;17.80;99.90
1578;DHT22;57623;53.608;10.004;2022-09-20T15:52:58;17.70;99.90
1578;DHT22;57623;53.608;10.004;2022-09-20T15:55:46;17.60;99.90
1578;DHT22;57623;53.608;10.004;2022-09-20T15:58:34;17.60;99.90
1578;DHT22;57623;53.608;10.004;2022-09-20T16:01:22;17.50;99.90
1578;DHT22;57623;53.608;10.004;2022-09-20T16:04:14;17.50;99.90
1578;DHT22;57623;53.608;10.004;2022-09-20T16:07:03;17.40;99.90
1578;DHT22;57623;53.608;10.004;2022-09-20T16:09:52;17.30;99.90
1578;DHT22;57623;53.608;10.004;2022-09-20T16:12:43;17.30;99.90
1578;DHT22;57623;53.608;10.004;2022-09-20T16:15:32;17.30;99.90
1578;DHT22;57623;53.608;10.004;2022-09-20T16:18:20;17.20;99.90
1578;DHT22;57623;53.608;10.004;2022-09-20T16:21:28;17.20;99.90
1578;DHT22;57623;53.608;10.004;2022-09-20T16:24:17;17.10;99.90
1578;DHT22;57623;53.608;10.004;2022-09-20T16:27:06;17.10;99.90
1578;DHT22;57623;53.608;10.004;2022-09-20T16:29:55;17.00;99.90
1578;DHT22;57623;53.608;10.004;2022-09-20T16:32:44;17.00;99.90
1578;DHT22;57623;53.608;10.004;2022-09-20T16:35:33;16.90;99.90
1578;DHT22;57623;53.608;10.004;2022-09-20T16:38:22;16.70;99.90
1578;DHT22;57623;53.608;10.004;2022-09-20T16:41:17;16.60;99.90
1578;DHT22;57623;53.608;10.004;2022-09-20T16:44:05;16.50;99.90
1578;DHT22;57623;53.608;10.004;2022-09-20T16:46:54;16.40;99.90
1578;DHT22;57623;53.608;10.004;2022-09-20T16:49:42;16.20;99.90
1578;DHT22;57623;53.608;10.004;2022-09-20T16:52:31;16.10;99.90
1578;DHT22;57623;53.608;10.004;2022-09-20T16:55:21;16.00;99.90
1578;DHT22;57623;53.608;10.004;2022-09-20T16:58:09;15.90;99.90
1578;DHT22;57623;53.608;10.004;2022-09-20T17:01:02;15.80;99.90
1578;DHT22;57623;53.608;10.004;2022-09-20T17:03:51;15.70;99.90
1578;DHT22;57623;53.608;10.004;2022-09-20T17:06:40;15.70;99.90
1578;DHT22;57623;53.608;10.004;2022-09-20T17:09:29;15.60;99.90
1578;DHT22;57623;53.608;10.004;2022-09-20T17:12:20;15.50;99.90
1578;DHT22;57623;53.608;10.004;2022-09-20T17:15:11;15.40;99.90
1578;DHT22;57623;53.608;10.004;2022-09-20T17:17:59;15.30;99.90
1578;DHT22;57623;53.608;10.004;2022-09-20T17:20:51;15.20;99.90
1578;DHT22;57623;53.608;10.004;2022-09-20T17:23:40;15.10;99.90
1578;DHT22;57623;53.608;10.004;2022-09-20T17:26:29;15.00;99.90
1578;DHT22;57623;53.608;10.004;2022-09-20T17:29:20;14.90;99.90
1578;DHT22;57623;53.608;10.004;2022-09-20T17:32:09;14.70;99.90
1578;DHT22;57623;53.608;10.004;2022-09-20T17:34:57;14.60;99.90
1578;DHT22;57623;53.608;10.004;2022-09-20T17:37:46;14.40;99.90
1578;DHT22;57623;53.608;10.004;2022-09-20T17:40:34;14.30;99.90
1578;DHT22;57623;53.608;10.004;2022-09-20T17:43:22;14.30;99.90
1578;DHT22;57623;53.608;10.004;2022-09-20T17:46:13;14.20;99.90
1578;DHT22;57623;53.608;10.004;2022-09-20T17:49:04;14.10;99.90
1578;DHT22;57623;53.608;10.004;2022-09-20T17:51:54;14.10;99.90
1578;DHT22;57623;53.608;10.004;2022-09-20T17:54:45;13.90;99.90
1578;DHT22;57623;53.608;10.004;2022-09-20T17:57:41;13.80;99.90
1578;DHT22;57623;53.608;10.004;2022-09-20T18:00:31;13.70;99.90
1578;DHT22;57623;53.608;10.004;2022-09-20T18:06:36;13.50;99.90
1578;DHT22;57623;53.608;10.004;2022-09-20T18:09:25;13.50;99.90
1578;DHT22;57623;53.608;10.004;2022-09-20T18:12:24;13.30;99.90
1578;DHT22;57623;53.608;10.004;2022-09-20T18:15:23;13.30;99.90
1578;DHT22;57623;53.608;10.004;2022-09-20T18:18:14;13.20;99.90
1578;DHT22;57623;53.608;10.004;2022-09-20T18:21:17;13.10;99.90
1578;DHT22;57623;53.608;10.004;2022-09-20T18:24:14;13.00;99.90
1578;DHT22;57623;53.608;10.004;2022-09-20T18:27:08;12.90;99.90
1578;DHT22;57623;53.608;10.004;2022-09-20T18:29:56;12.90;99.90
1578;DHT22;57623;53.608;10.004;2022-09-20T18:32:51;12.80;99.90
1578;DHT22;57623;53.608;10.004;2022-09-20T18:35:46;12.80;99.90
1578;DHT22;57623;53.608;10.004;2022-09-20T18:38:51;12.70;99.90
1578;DHT22;57623;53.608;10.004;2022-09-20T18:41:44;12.70;99.90
1578;DHT22;57623;53.608;10.004;2022-09-20T18:44:44;12.60;99.90
1578;DHT22;57623;53.608;10.004;2022-09-20T18:47:37;12.60;99.90
1578;DHT22;57623;53.608;10.004;2022-09-20T18:50:29;12.60;99.90
1578;DHT22;57623;53.608;10.004;2022-09-20T18:53:24;12.50;99.90
1578;DHT22;57623;53.608;10.004;2022-09-20T18:56:22;12.40;99.90
1578;DHT22;57623;53.608;10.004;2022-09-20T18:59:14;12.40;99.90
1578;DHT22;57623;53.608;10.004;2022-09-20T19:02:38;12.40;99.90
1578;DHT22;57623;53.608;10.004;2022-09-20T19:05:44;12.40;99.90
1578;DHT22;57623;53.608;10.004;2022-09-20T19:08:39;12.30;99.90
1578;DHT22;57623;53.608;10.004;2022-09-20T19:11:38;12.20;99.90
1578;DHT22;57623;53.608;10.004;2022-09-20T19:14:43;12.20;99.90
1578;DHT22;57623;53.608;10.004;2022-09-20T19:17:45;12.10;99.90
1578;DHT22;57623;53.608;10.004;2022-09-20T19:20:46;12.10;99.90
1578;DHT22;57623;53.608;10.004;2022-09-20T19:23:57;12.10;99.90
1578;DHT22;57623;53.608;10.004;2022-09-20T19:26:53;12.00;99.90
1578;DHT22;57623;53.608;10.004;2022-09-20T19:29:45;12.00;99.90
1578;DHT22;57623;53.608;10.004;2022-09-20T19:32:34;11.90;99.90
1578;DHT22;57623;53.608;10.004;2022-09-20T19:35:27;11.90;99.90
1578;DHT22;57623;53.608;10.004;2022-09-20T19:38:52;11.90;99.90
1578;DHT22;57623;53.608;10.004;2022-09-20T19:42:03;11.80;99.90
1578;DHT22;57623;53.608;10.004;2022-09-20T19:45:14;11.70;99.90
1578;DHT22;57623;53.608;10.004;2022-09-20T19:48:42;11.60;99.90
1578;DHT22;57623;53.608;10.004;2022-09-20T19:52:11;11.60;99.90
1578;DHT22;57623;53.608;10.004;2022-09-20T19:55:29;11.60;99.90
1578;DHT22;57623;53.608;10.004;2022-09-20T19:58:42;11.50;99.90
1578;DHT22;57623;53.608;10.004;2022-09-20T20:01:56;11.50;99.90
1578;DHT22;57623;53.608;10.004;2022-09-20T20:05:14;11.40;99.90
1578;DHT22;57623;53.608;10.004;2022-09-20T20:08:36;11.30;99.90
1578;DHT22;57623;53.608;10.004;2022-09-20T20:18:43;11.20;99.90
1578;DHT22;57623;53.608;10.004;2022-09-20T20:22:01;11.20;99.90
1578;DHT22;57623;53.608;10.004;2022-09-20T20:24:58;11.10;99.90
1578;DHT22;57623;53.608;10.004;2022-09-20T20:28:03;11.10;99.90
1578;DHT22;57623;53.608;10.004;2022-09-20T20:31:10;11.00;99.90
1578;DHT22;57623;53.608;10.004;2022-09-20T20:34:28;11.00;99.90
1578;DHT22;57623;53.608;10.004;2022-09-20T20:37:34;11.00;99.90
1578;DHT22;57623;53.608;10.004;2022-09-20T20:40:37;10.90;99.90
1578;DHT22;57623;53.608;10.004;2022-09-20T20:43:52;10.80;99.90
1578;DHT22;57623;53.608;10.004;2022-09-20T20:46:58;10.80;99.90
1578;DHT22;57623;53.608;10.004;2022-09-20T20:50:24;10.80;99.90
1578;DHT22;57623;53.608;10.004;2022-09-20T20:53:30;10.70;99.90
1578;DHT22;57623;53.608;10.004;2022-09-20T20:56:30;10.70;99.90
1578;DHT22;57623;53.608;10.004;2022-09-20T20:59:51;10.70;99.90
1578;DHT22;57623;53.608;10.004;2022-09-20T21:06:16;10.50;99.90
1578;DHT22;57623;53.608;10.004;2022-09-20T21:09:23;10.50;99.90
1578;DHT22;57623;53.608;10.004;2022-09-20T21:12:21;10.50;99.90
1578;DHT22;57623;53.608;10.004;2022-09-20T21:15:33;10.50;99.90
1578;DHT22;57623;53.608;10.004;2022-09-20T21:19:12;10.40;99.90
1578;DHT22;57623;53.608;10.004;2022-09-20T21:21:52;10.30;99.90
1578;DHT22;57623;53.608;10.004;2022-09-20T21:24:55;10.30;99.90
1578;DHT22;57623;53.608;10.004;2022-09-20T21:27:57;10.20;99.90
1578;DHT22;57623;53.608;10.004;2022-09-20T21:31:04;10.20;99.90
1578;DHT22;57623;53.608;10.004;2022-09-20T21:34:10;10.20;99.90
1578;DHT22;57623;53.608;10.004;2022-09-20T21:40:42;10.10;99.90
1578;DHT22;57623;53.608;10.004;2022-09-20T21:43:40;10.10;99.90
1578;DHT22;57623;53.608;10.004;2022-09-20T21:46:43;10.00;99.90
1578;DHT22;57623;53.608;10.004;2022-09-20T21:49:44;10.00;99.90
1578;DHT22;57623;53.608;10.004;2022-09-20T21:53:06;10.10;99.90
1578;DHT22;57623;53.608;10.004;2022-09-20T21:56:06;10.00;99.90
1578;DHT22;57623;53.608;10.004;2022-09-20T21:59:22;10.00;99.90
1578;DHT22;57623;53.608;10.004;2022-09-20T22:02:14;10.00;99.90
1578;DHT22;57623;53.608;10.004;2022-09-20T22:05:11;9.90;99.90
1578;DHT22;57623;53.608;10.004;2022-09-20T22:08:25;9.90;99.90
1578;DHT22;57623;53.608;10.004;2022-09-20T22:11:41;9.90;99.90
1578;DHT22;57623;53.608;10.004;2022-09-20T22:14:52;9.80;99.90
1578;DHT22;57623;53.608;10.004;2022-09-20T22:17:51;9.80;99.90
1578;DHT22;57623;53.608;10.004;2022-09-20T22:21:10;9.80;99.90
1578;DHT22;57623;53.608;10.004;2022-09-20T22:24:17;9.70;99.90
1578;DHT22;57623;53.608;10.004;2022-09-20T22:27:25;9.70;99.90
1578;DHT22;57623;53.608;10.004;2022-09-20T22:30:22;9.70;99.90
1578;DHT22;57623;53.608;10.004;2022-09-20T22:33:28;9.60;99.90
1578;DHT22;57623;53.608;10.004;2022-09-20T22:36:31;9.60;99.90
1578;DHT22;57623;53.608;10.004;2022-09-20T22:39:47;9.50;99.90
1578;DHT22;57623;53.608;10.004;2022-09-20T22:43:02;9.50;99.90
1578;DHT22;57623;53.608;10.004;2022-09-20T22:46:07;9.50;99.90
1578;DHT22;57623;53.608;10.004;2022-09-20T22:49:05;9.40;99.90